O Fallon, Illinois
Current Conditions -  °F | °C
As of 12:18 AM on Sunday 26 Oct 2014 (Local Time) from KBLV Reporting Station
Clear Clear  
Wind Chill: 55°   Ceiling: Unl
Heat Index: 55°   Visibility: 8mi
Dew Point: 54°   Wind: 2mph
Humidity: 94%   Direction: 340°NNW
Pressure: 30"   Gusts: NA
Location:  38.6074°N, 89.8929°W
Report Text: KBLV 260518Z AUTO 34002KT 8SM R32R/5500FT CLR 13/12 A3000 RMK AO2
Loading
Personal Weather Stations






























Interactive Weather Map
Tropical Storm Tracking
New forecast layout! Learn more

10-Day Weather Forecast

Advertisements
Track Severe Weather on mobile